Antoine Wiels

Antoine Wiels

Statistiques 2026

  • Courses courues : 92
  • Nb de victoires : 24
  • Nb de places : 52
  • Écart gagnant : 2
  • Réussite à la gagne : 26%
  • Réussite à la place : 57%
Musique : 2a 0a 1a 3a 0a 3a 0a 0a 3a 5a Da Da 7a Da 3a 7a Da 1a
DateRangCatégorieAlloc.Dist.HippodromeChevalRed. KmSpé.
06/02/17 4 Trot 32 000€ 3 025m Chateaubriant Tenor d'Espiens 1'17"2 Attelé
13/02/17 4 Trot 12 000€ 2 575m Saint Brieuc Elena Stuart 1'22"6 Attelé
01/03/17 4 Trot 55 000€ 2 150m Enghien Soisy Pike River 1'13"8 Attelé lire

Attentiste au sein du peloton, a terminé honorablement, échouant de peu pour un meilleur classement. A gagné un rang après enquête.

04/03/17 4 Trot 22 000€ 2 725m Pornichet La Baule Velio du Lupin 1'16"8 Attelé
09/03/17 4 Trot 20 000€ 2 450m Caen Daphne d'hameline 1'16"3 Attelé lire

Longtemps en queue de peloton, a bien conclu, échouant de peu pour la troisième place.

10/03/17 4 Trot 23 000€ 2 850m Cordemais Theo d'Erah 1'13"9 Monté
19/03/17 4 Trot 21 000€ 2 800m Pontchateau Champion du Lupin 1'16"9 Attelé
01/04/17 4 Trot 22 000€ 2 875m Laval Caesar Cehere 1'15"4 Monté lire

Après avoir figuré, a donné un assez bon coup de reins dans la phase finale.

13/04/17 4 Trot 23 000€ 2 950m Le Mans Armenie du Lupin 1'15"6 Monté
26/04/17 4 Trot 18 000€ 2 200m Caen Endia Perrine 1'16"4 Attelé
01/05/17 4 Trot 22 000€ 2 625m La Rochelle Versaline 1'16"4 Attelé
01/05/17 4 Trot 20 000€ 2 625m La Rochelle Dragueur d'Azur 1'16"9 Attelé
03/05/17 4 Trot 100 000€ 2 700m Lyon La Soie Uniflosa Bella 1'13"6 Attelé lire

Vite en queue de peloton, a progressé en face puis a bien soutenu son effort jusqu'au bout. A gagné un rang après enquête.

06/05/17 4 Trot 24 000€ 2 700m Graignes Una Bella des Pins 1'16"2 Monté
12/05/17 4 Trot 13 000€ 2 875m Laval Derby Box 1'17"5 Attelé
23/05/17 4 Trot 21 000€ 3 000m Nantes Chacha de Gontier 1'16"0 Attelé
04/06/17 4 Trot 20 000€ 2 650m Alencon Besame Mucho Monté
04/06/17 4 Trot 45 000€ 2 675m Alencon Uniflosa Bella Attelé
09/06/17 4 Trot 20 000€ 2 875m Mauquenchy Champion du Lupin 1'16"7 Attelé
11/06/17 4 Trot 15 000€ 3 050m Montlucon Neris Calicio Bello Attelé
22/06/17 4 Trot 21 000€ 2 800m Chartres Dixie Bond 1'17"9 Attelé
25/06/17 4 Trot 21 000€ 2 600m Saint Brieuc Clea des Apres 1'17"1 Attelé
25/06/17 4 Trot 22 000€ 2 575m Saint Brieuc El Paco 1'18"0 Attelé
25/06/17 4 Mixte 17 000€ 2 700m Segre Dixie de Vandel 1'22"9 Attelé
25/06/17 4 Mixte 35 000€ 2 725m Segre Vahine de Felliere 1'18"6 Attelé
28/06/17 4 Trot 21 000€ 2 875m Laval Chicago Bello 1'15"7 Monté
09/07/17 4 Mixte 20 000€ 2 950m Saint Malo Bellissima du Poto 1'17"8 Attelé
12/07/17 4 Trot 24 000€ 2 800m Les Sables D'Olonne Carla de Felliere 1'14"6 Attelé
15/07/17 4 Trot 11 000€ 2 775m Les Sables D'Olonne Edjame Visais 1'19"7 Attelé
16/07/17 4 Trot 45 000€ 3 150m Royan La Palmyre Uniflosa Bella 1'13"8 Attelé
16/07/17 4 Trot 15 000€ 2 500m Royan La Palmyre Colombo Bello 1'19"4 Monté
22/07/17 4 Trot 11 000€ 2 650m Les Sables D'Olonne Espion du Sky 1'19"4 Attelé
28/07/17 4 Trot 22 000€ 2 100m Pornichet La Baule Brooklyn Blue 1'15"5 Attelé
29/07/17 4 Trot 21 000€ 2 950m Le Mans Cash Is King 1'16"9 Monté
18/08/17 4 Trot 21 000€ 2 750m Cabourg Dialo des Keches 1'16"6 Monté lire

Fautif après les tribunes, a figuré ensuite avant de finir correctement.

28/08/17 4 Trot 39 000€ 2 700m Vincennes Dino du Chateau 1'16"2 Monté lire

Après avoir figuré au sein du peloton, a comblé du terrain pour finir mais sans menacer les premiers.

29/08/17 4 Trot 24 000€ 2 750m Cabourg Danseur du Lupin 1'16"7 Attelé
01/09/17 4 Trot 19 000€ 2 800m Vichy Diablesse de Calvi 1'17"9 Attelé
19/09/17 4 Trot 19 000€ 2 875m Laval Egir des Apres 1'19"2 Attelé
29/09/17 4 Trot 19 000€ 2 875m Laval Duc de Reux 1'16"6 Attelé
29/09/17 4 Trot 13 000€ 2 875m Laval Enlado 1'18"0 Attelé
07/10/17 4 Trot 20 000€ 2 875m Laval Daghad d'Erquy 1'16"0 Monté
21/10/17 4 Trot 21 000€ 2 800m Les Sables D'Olonne Cash Is King 1'16"7 Monté
01/11/17 4 Trot 15 000€ 2 875m Laval Django Bello 1'15"5 Attelé
06/11/17 4 Trot 15 000€ 2 800m Vire Diva de la Coudre 1'18"4 Attelé
07/11/17 4 Trot 34 000€ 2 850m Vincennes Echo Gema 1'17"7 Monté lire

Après avoir figuré, est venu prendre une lointaine quatrième place pour finir.

10/11/17 4 Trot 19 000€ 2 875m Laval Django Bello 1'15"5 Attelé
12/11/17 4 Trot 12 000€ 2 875m Meslay Du Maine Dolly d'Aimte 1'17"7 Monté
16/11/17 4 Trot 37 000€ 2 700m Vincennes Duchesse de Sarthe 1'15"8 Monté lire

Après avoir figuré, a fait illusion dans le tournant final, puis a fini correctement.

20/11/17 4 Trot 13 000€ 2 400m Chateaubriant Elite de Sarthe 1'21"0 Attelé